This is the latest recevied weather packets stored in our database for station/object K8JCL-13. If no packets are shown the sender has not sent any weather packets the latest 10 day(s).
| Time | Temp. | Humidity | Pressure | Rain* | Wind** | Luminosity | Snow |
|---|---|---|---|---|---|---|---|
| 1777153835 | 21.11° C | 61% | 1011.3 hPa | 0 mm | - | 68 W/m² | - |
| 1777153532 | 21.11° C | 63% | 1011 hPa | 0 mm | - | 53 W/m² | - |
| 1777153227 | 21.11° C | 64% | 1011.1 hPa | 0 mm | - | 40 W/m² | - |
| 1777152924 | 22.22° C | 62% | 1011.3 hPa | 0 mm | - | 50 W/m² | - |
| 1777152621 | 22.22° C | 64% | 1011.2 hPa | 0 mm | - | 81 W/m² | - |
| 1777152318 | 22.22° C | 61% | 1010.8 hPa | 0 mm | - | 108 W/m² | - |
| 1777152012 | 21.67° C | 63% | 1010.9 hPa | 0 mm | - | 107 W/m² | - |
| 1777151708 | 21.67° C | 63% | 1011.1 hPa | 0 mm | - | 71 W/m² | - |
| 1777151406 | 21.67° C | 61% | 1011.3 hPa | 0 mm | - | 56 W/m² | - |
| 1777151101 | 21.67° C | 61% | 1011.2 hPa | 0 mm | - | 50 W/m² | - |
| 1777150796 | 21.11° C | 61% | 1011.1 hPa | 0 mm | - | 48 W/m² | - |
| 1777150491 | 21.67° C | 60% | 1011.2 hPa | 0 mm | - | 71 W/m² | - |
| 1777150187 | 21.67° C | 62% | 1011.2 hPa | 0 mm | - | 94 W/m² | - |
| 1777149885 | 21.67° C | 61% | 1011 hPa | 0 mm | - | 81 W/m² | - |
| 1777149580 | 20.56° C | 63% | 1011.2 hPa | 0 mm | - | 83 W/m² | - |
| 1777149278 | 21.11° C | 64% | 1011.2 hPa | 0 mm | - | 69 W/m² | - |
| 1777148973 | 21.67° C | 66% | 1011.3 hPa | 0 mm | - | 103 W/m² | - |
| 1777148669 | 21.67° C | 64% | 1011.2 hPa | 0 mm | - | 136 W/m² | - |
| 1777148365 | 21.67° C | 64% | 1011.3 hPa | 0 mm | - | 126 W/m² | - |
| 1777148061 | 21.11° C | 65% | 1011.2 hPa | 0 mm | - | 89 W/m² | - |
| 1777147757 | 20.56° C | 65% | 1011.3 hPa | 0 mm | - | 83 W/m² | - |
| 1777147453 | 21.11° C | 66% | 1011.2 hPa | 0 mm | - | 95 W/m² | - |
| 1777147148 | 21.11° C | 64% | 1011.2 hPa | 0 mm | - | 189 W/m² | - |
| 1777146839 | 22.22° C | 63% | 1011.3 hPa | 0 mm | - | 470 W/m² | - |
| 1777146535 | 21.67° C | 63% | 1011.3 hPa | 0 mm | - | 326 W/m² | - |
* Rain latest hour (hover to see other rain measurements)
** Current wind speed in m/s (hover to see current wind gust speed)